Time;durP1;ratioP1;P1;durP2;ratioP2;P2;SDS_P1;SDS_P2;PMS_P1;PMS_P2;Temp;Humidity;BMP_temperature;BMP_pressure;BME280_temperature;BME280_humidity;BME280_pressure;Samples;Min_cycle;Max_cycle;Signal;HPM_P1;HPM_P2
2021/11/24 00:00:49;;;;;;;2.43;2.33;;;-1.40;99.90;;;;;;4976835;28;20286;-64
2021/11/24 00:03:15;;;;;;;5.27;3.70;;;-1.40;99.90;;;;;;4976639;28;20205;-63
2021/11/24 00:05:41;;;;;;;2.83;2.63;;;-1.40;99.90;;;;;;4976869;28;20211;-63
2021/11/24 00:08:06;;;;;;;4.30;4.00;;;-1.40;99.90;;;;;;4975987;28;20175;-64
2021/11/24 00:10:34;;;;;;;8.00;2.97;;;-1.40;99.90;;;;;;4976434;28;20180;-65
2021/11/24 00:13:01;;;;;;;3.55;3.20;;;-1.40;99.90;;;;;;4976547;28;20188;-64
2021/11/24 00:15:27;;;;;;;4.00;3.70;;;-1.50;99.90;;;;;;4976493;28;20177;-65
2021/11/24 00:17:53;;;;;;;4.65;3.30;;;-1.50;99.90;;;;;;4976113;28;20172;-64
2021/11/24 00:20:19;;;;;;;5.05;3.53;;;-1.50;99.90;;;;;;4976749;28;20168;-65
2021/11/24 00:22:46;;;;;;;3.50;2.72;;;-1.50;99.90;;;;;;4976459;28;20208;-64
2021/11/24 00:25:12;;;;;;;5.72;3.78;;;-1.50;99.90;;;;;;4976101;28;20283;-63
2021/11/24 00:27:38;;;;;;;5.65;3.97;;;-1.60;99.90;;;;;;4976114;28;20223;-64
2021/11/24 00:30:05;;;;;;;3.37;3.17;;;-1.60;99.90;;;;;;4976242;28;20737;-64
2021/11/24 00:32:31;;;;;;;3.65;3.33;;;-1.60;99.90;;;;;;4975915;28;20442;-64
2021/11/24 00:34:57;;;;;;;3.25;3.15;;;-1.60;99.90;;;;;;4975507;28;20172;-65
2021/11/24 00:37:23;;;;;;;3.23;2.50;;;-1.70;99.90;;;;;;4975944;28;20287;-65
2021/11/24 00:39:49;;;;;;;2.67;2.53;;;-1.60;99.90;;;;;;4976074;28;20259;-65
2021/11/24 00:42:15;;;;;;;2.60;2.40;;;-1.60;99.90;;;;;;4974279;28;20210;-64
2021/11/24 00:44:40;;;;;;;1.87;1.67;;;-1.70;99.90;;;;;;4975985;28;20192;-64
2021/11/24 00:47:08;;;;;;;2.33;1.97;;;-1.70;99.90;;;;;;4975730;28;20223;-64
2021/11/24 00:49:34;;;;;;;4.53;3.47;;;-1.70;99.90;;;;;;4975851;28;20692;-65
2021/11/24 00:52:00;;;;;;;3.17;2.97;;;-1.70;99.90;;;;;;4975603;28;20177;-64
2021/11/24 00:54:26;;;;;;;3.33;3.10;;;-1.70;99.90;;;;;;4975773;28;20196;-64
2021/11/24 00:56:51;;;;;;;3.57;3.37;;;-1.80;99.90;;;;;;4974154;28;20183;-64
2021/11/24 00:59:17;;;;;;;3.37;3.20;;;-1.80;99.90;;;;;;4990270;28;20201;-64
2021/11/24 01:01:43;;;;;;;2.13;1.83;;;-1.80;99.90;;;;;;4980728;28;20654;-64
2021/11/24 01:04:08;;;;;;;6.80;4.00;;;-1.80;99.90;;;;;;4975366;28;20717;-63
2021/11/24 01:06:34;;;;;;;4.37;3.60;;;-1.80;99.90;;;;;;4975220;28;20259;-65
2021/11/24 01:08:59;;;;;;;2.40;2.27;;;-1.80;99.90;;;;;;4975651;28;20203;-65
2021/11/24 01:11:25;;;;;;;4.83;3.07;;;-1.80;99.90;;;;;;4975114;28;20176;-64
2021/11/24 01:13:51;;;;;;;14.77;3.53;;;-1.80;99.90;;;;;;4975666;28;20196;-64
2021/11/24 01:16:17;;;;;;;6.53;4.50;;;-1.80;99.90;;;;;;4975324;28;20173;-69
2021/11/24 01:18:42;;;;;;;6.83;3.03;;;-1.80;99.90;;;;;;4975016;28;20205;-64
2021/11/24 01:21:08;;;;;;;4.07;3.20;;;-1.80;99.90;;;;;;4975324;28;20498;-64
2021/11/24 01:23:34;;;;;;;5.47;3.00;;;-1.80;99.90;;;;;;4974050;28;20216;-64
2021/11/24 01:25:59;;;;;;;2.87;2.67;;;-1.80;99.90;;;;;;4975232;28;20167;-64
2021/11/24 01:28:26;;;;;;;5.30;3.80;;;-1.90;99.90;;;;;;4974490;28;20531;-64
2021/11/24 01:30:51;;;;;;;2.40;2.20;;;-1.90;99.90;;;;;;4975333;28;20260;-64
2021/11/24 01:33:17;;;;;;;3.47;3.27;;;-1.80;99.90;;;;;;4974963;28;20288;-64
2021/11/24 01:35:43;;;;;;;6.03;5.63;;;-1.90;99.90;;;;;;4975052;28;20279;-64
2021/11/24 01:38:09;;;;;;;2.55;2.45;;;-1.90;99.90;;;;;;4974117;28;20682;-65
2021/11/24 01:40:35;;;;;;;3.13;2.88;;;-1.90;99.90;;;;;;4975097;28;20272;-65
2021/11/24 01:43:00;;;;;;;3.80;3.33;;;-1.80;99.90;;;;;;4974967;28;20200;-63
2021/11/24 01:45:26;;;;;;;1.70;1.60;;;-1.80;99.90;;;;;;4974685;28;20172;-63
2021/11/24 01:47:52;;;;;;;3.23;2.93;;;-1.80;99.90;;;;;;4974195;28;20259;-65
2021/11/24 01:50:19;;;;;;;9.00;3.75;;;-1.80;99.90;;;;;;4974790;28;20575;-64
2021/11/24 01:52:46;;;;;;;2.97;2.65;;;-1.90;99.90;;;;;;4974753;28;20205;-65
2021/11/24 01:55:14;;;;;;;2.60;2.42;;;-1.90;99.90;;;;;;4974501;28;20191;-63
2021/11/24 01:57:42;;;;;;;3.33;3.13;;;-1.90;99.90;;;;;;4974191;28;20647;-65
2021/11/24 02:00:09;;;;;;;2.83;2.63;;;-1.90;99.90;;;;;;4973415;28;20271;-65
2021/11/24 02:02:34;;;;;;;6.30;3.88;;;-1.90;99.90;;;;;;4974789;28;20196;-65
2021/11/24 02:05:00;;;;;;;3.40;3.10;;;-1.80;99.90;;;;;;4972907;28;20192;-64
2021/11/24 02:07:26;;;;;;;3.97;3.53;;;-1.80;99.90;;;;;;4974282;28;20227;-65
2021/11/24 02:09:52;;;;;;;3.23;2.93;;;-1.80;99.90;;;;;;4974897;28;20404;-63
2021/11/24 02:12:18;;;;;;;11.00;4.50;;;-1.90;99.90;;;;;;4974501;28;20181;-63
2021/11/24 02:14:45;;;;;;;3.45;3.28;;;-1.90;99.90;;;;;;4974221;28;20246;-63
2021/11/24 02:17:15;;;;;;;2.17;2.08;;;-1.90;99.90;;;;;;4974037;28;20176;-63
2021/11/24 02:19:42;;;;;;;3.30;2.80;;;-1.90;99.90;;;;;;4974768;28;20179;-63
2021/11/24 02:22:08;;;;;;;2.85;2.65;;;-2.00;99.90;;;;;;4974249;28;20657;-63
2021/11/24 02:24:36;;;;;;;27.50;3.25;;;-2.00;99.90;;;;;;4974345;28;20546;-64
2021/11/24 02:27:04;;;;;;;2.42;2.22;;;-2.00;99.90;;;;;;4972735;28;20226;-65
2021/11/24 02:29:30;;;;;;;2.30;2.20;;;-2.00;99.90;;;;;;4974389;28;20587;-64
2021/11/24 02:31:57;;;;;;;1.87;1.87;;;-2.00;99.90;;;;;;4974688;28;20200;-64
2021/11/24 02:34:23;;;;;;;4.75;2.95;;;-2.10;99.90;;;;;;4973938;28;20203;-66
2021/11/24 02:36:49;;;;;;;2.05;1.95;;;-2.10;99.90;;;;;;4973910;28;20176;-64
2021/11/24 02:39:15;;;;;;;2.23;2.13;;;-2.10;99.90;;;;;;4974586;28;20500;-64
2021/11/24 02:41:42;;;;;;;3.10;2.78;;;-2.10;99.90;;;;;;4974364;28;20444;-65
2021/11/24 02:44:38;;;;;;;2.28;2.15;;;-2.20;99.90;;;;;;4973953;28;20214;-64
2021/11/24 02:47:13;;;;;;;2.30;2.20;;;-2.20;99.90;;;;;;4964889;28;20187;-64
2021/11/24 02:49:41;;;;;;;5.50;2.90;;;-2.20;99.90;;;;;;4974107;28;20259;-64
2021/11/24 02:52:08;;;;;;;1.85;1.75;;;-2.20;99.90;;;;;;4974110;28;20268;-64
2021/11/24 02:54:34;;;;;;;3.30;3.00;;;-2.20;99.90;;;;;;4973758;28;20536;-64
2021/11/24 02:57:01;;;;;;;2.07;1.93;;;-2.20;99.90;;;;;;4973712;28;20179;-65
2021/11/24 02:59:26;;;;;;;3.38;2.15;;;-2.20;99.90;;;;;;4977811;28;20427;-64
2021/11/24 03:01:52;;;;;;;3.70;3.40;;;-2.20;99.90;;;;;;4977887;28;20193;-62
2021/11/24 03:04:17;;;;;;;3.67;3.37;;;-2.20;99.90;;;;;;4977437;28;20223;-63
2021/11/24 03:06:43;;;;;;;2.33;2.20;;;-2.30;99.90;;;;;;4977527;28;20200;-62
2021/11/24 03:09:09;;;;;;;4.07;2.67;;;-2.30;99.90;;;;;;4977704;28;20210;-63
2021/11/24 03:11:35;;;;;;;1.93;1.83;;;-2.40;99.90;;;;;;4978024;28;20223;-64
2021/11/24 03:14:01;;;;;;;2.47;2.30;;;-2.40;99.90;;;;;;4975796;28;20701;-63
2021/11/24 03:16:26;;;;;;;2.00;1.90;;;-2.40;99.90;;;;;;4977061;28;20433;-64
2021/11/24 03:18:52;;;;;;;3.80;3.50;;;-2.40;99.90;;;;;;4977598;28;20996;-64
2021/11/24 03:21:19;;;;;;;2.13;2.03;;;-2.40;99.90;;;;;;4977363;28;20386;-63
2021/11/24 03:23:44;;;;;;;3.30;2.80;;;-2.50;99.90;;;;;;4977243;28;20192;-64
2021/11/24 03:26:10;;;;;;;4.60;2.03;;;-2.50;99.90;;;;;;4977635;28;20591;-64
2021/11/24 03:28:35;;;;;;;2.87;2.43;;;-2.40;99.90;;;;;;4977476;28;20184;-64
2021/11/24 03:31:01;;;;;;;3.63;3.37;;;-2.40;99.90;;;;;;4977785;28;20271;-65
2021/11/24 03:33:27;;;;;;;2.80;2.70;;;-2.40;99.90;;;;;;4977109;28;20574;-64
2021/11/24 03:35:53;;;;;;;5.23;2.70;;;-2.50;99.90;;;;;;4977198;28;20270;-63
2021/11/24 03:38:18;;;;;;;2.60;2.40;;;-2.50;99.90;;;;;;4976860;28;20172;-64
2021/11/24 03:40:44;;;;;;;2.77;2.40;;;-2.50;99.90;;;;;;4975630;28;20512;-64
2021/11/24 03:43:10;;;;;;;2.53;2.43;;;-2.50;99.90;;;;;;4976655;28;20192;-65
2021/11/24 03:45:37;;;;;;;2.00;1.73;;;-2.50;99.90;;;;;;4975946;28;20646;-64
2021/11/24 03:48:05;;;;;;;1.52;1.45;;;-2.50;99.90;;;;;;4976698;28;20239;-64
2021/11/24 03:50:31;;;;;;;6.63;3.25;;;-2.50;99.90;;;;;;4977157;28;20492;-63
2021/11/24 03:52:57;;;;;;;3.63;3.33;;;-2.50;99.90;;;;;;4976596;28;20215;-64
2021/11/24 03:55:23;;;;;;;2.30;2.20;;;-2.50;99.90;;;;;;4976906;28;20168;-64
2021/11/24 03:57:50;;;;;;;3.05;2.90;;;-2.40;99.90;;;;;;4976556;28;20176;-64
2021/11/24 04:00:26;;;;;;;3.90;3.63;;;-2.40;99.90;;;;;;4975464;28;20180;-64
2021/11/24 04:02:52;;;;;;;2.90;2.67;;;-2.40;99.90;;;;;;4976646;28;20314;-66
2021/11/24 04:05:18;;;;;;;3.38;2.38;;;-2.40;99.90;;;;;;4976320;28;20168;-64
2021/11/24 04:07:44;;;;;;;3.00;2.63;;;-2.40;99.90;;;;;;4974993;28;20188;-64
2021/11/24 04:10:11;;;;;;;2.83;2.27;;;-2.40;99.90;;;;;;4974682;28;20423;-64
2021/11/24 04:12:37;;;;;;;2.97;2.80;;;-2.40;99.90;;;;;;4976330;28;20419;-64
2021/11/24 04:15:05;;;;;;;8.95;2.47;;;-2.40;99.90;;;;;;4975288;28;20210;-64
2021/11/24 04:17:31;;;;;;;2.35;2.17;;;-2.50;99.90;;;;;;4975854;28;20231;-64
2021/11/24 04:19:57;;;;;;;6.93;3.95;;;-2.50;99.90;;;;;;4976477;28;20172;-64
2021/11/24 04:22:23;;;;;;;3.15;2.95;;;-2.50;99.90;;;;;;4976447;28;20200;-64
2021/11/24 04:24:49;;;;;;;2.87;2.67;;;-2.50;99.90;;;;;;4976531;28;20251;-64
2021/11/24 04:27:14;;;;;;;9.90;3.30;;;-2.50;99.90;;;;;;4974431;28;20952;-64
2021/11/24 04:29:41;;;;;;;3.17;2.93;;;-2.60;99.90;;;;;;4976467;28;20630;-63
2021/11/24 04:32:07;;;;;;;6.00;3.92;;;-2.60;99.90;;;;;;4976451;28;20172;-64
2021/11/24 04:34:34;;;;;;;4.05;3.75;;;-2.60;99.90;;;;;;4976041;28;20277;-64
2021/11/24 04:36:59;;;;;;;3.63;3.42;;;-2.60;99.90;;;;;;4975782;28;20607;-63
2021/11/24 04:39:25;;;;;;;2.13;2.03;;;-2.60;99.90;;;;;;4975006;28;20200;-63
2021/11/24 04:41:51;;;;;;;4.00;3.70;;;-2.60;99.90;;;;;;4974742;28;20199;-63
2021/11/24 04:44:16;;;;;;;2.43;2.23;;;-2.60;99.90;;;;;;4974746;28;20300;-65
2021/11/24 04:46:42;;;;;;;1.60;1.60;;;-2.70;99.90;;;;;;4975473;28;20180;-62
2021/11/24 04:49:08;;;;;;;3.57;3.23;;;-2.70;99.90;;;;;;4975743;28;20172;-64
2021/11/24 04:51:33;;;;;;;4.20;2.83;;;-2.70;99.90;;;;;;4975530;28;20424;-63
2021/11/24 04:53:59;;;;;;;2.40;2.10;;;-2.70;99.90;;;;;;4975800;28;20192;-64
2021/11/24 04:56:25;;;;;;;1.30;1.30;;;-2.70;99.90;;;;;;4975372;28;20476;-63
2021/11/24 04:58:52;;;;;;;2.23;2.13;;;-2.70;99.90;;;;;;4975684;28;20176;-65
2021/11/24 05:01:19;;;;;;;2.08;1.98;;;-2.70;99.90;;;;;;4975002;28;20214;-64
2021/11/24 05:03:44;;;;;;;3.13;2.92;;;-2.80;99.90;;;;;;4975610;28;20203;-63
2021/11/24 05:06:11;;;;;;;4.50;1.87;;;-2.70;99.90;;;;;;4975528;28;20583;-64
2021/11/24 05:08:37;;;;;;;3.95;2.35;;;-2.70;99.90;;;;;;4975032;28;20176;-64
2021/11/24 05:11:03;;;;;;;2.10;2.00;;;-2.70;99.90;;;;;;4975694;28;20251;-64
2021/11/24 05:13:29;;;;;;;7.38;3.78;;;-2.70;99.90;;;;;;4975438;28;20598;-64
2021/11/24 05:15:59;;;;;;;2.90;2.77;;;-2.70;99.90;;;;;;4975286;28;20199;-64
2021/11/24 05:18:31;;;;;;;2.95;2.78;;;-2.70;99.90;;;;;;4973409;28;20518;-64
2021/11/24 05:21:02;;;;;;;3.08;2.78;;;-2.70;99.90;;;;;;4974965;28;20199;-64
2021/11/24 05:23:31;;;;;;;1.75;1.70;;;-2.70;99.90;;;;;;4974084;28;20250;-64
2021/11/24 05:25:57;;;;;;;1.23;1.23;;;-2.80;99.90;;;;;;4974889;28;20168;-64
2021/11/24 05:28:23;;;;;;;4.03;3.73;;;-2.80;99.90;;;;;;4973225;28;20577;-64
2021/11/24 05:30:48;;;;;;;6.33;2.77;;;-2.80;99.90;;;;;;4975206;28;20562;-64
2021/11/24 05:33:14;;;;;;;4.27;3.53;;;-2.80;99.90;;;;;;4974507;28;20254;-64
2021/11/24 05:35:39;;;;;;;3.03;2.83;;;-2.80;99.90;;;;;;4974893;28;20176;-64
2021/11/24 05:38:05;;;;;;;2.67;2.57;;;-2.90;99.90;;;;;;4974756;28;20172;-65
2021/11/24 05:40:31;;;;;;;3.53;3.23;;;-2.90;99.90;;;;;;4975152;28;20169;-64
2021/11/24 05:42:58;;;;;;;3.67;3.37;;;-2.90;99.90;;;;;;4974547;28;20212;-64
2021/11/24 05:48:02;;;;;;;2.70;1.65;;;-2.90;99.90;;;;;;4974498;28;20251;-64
2021/11/24 05:50:29;;;;;;;3.50;2.45;;;-2.90;99.90;;;;;;4974709;28;20628;-64
2021/11/24 05:52:55;;;;;;;2.88;2.75;;;-2.90;99.90;;;;;;4974925;28;20192;-64
2021/11/24 05:55:22;;;;;;;3.50;3.20;;;-2.90;99.90;;;;;;4974926;28;20525;-65
2021/11/24 05:57:48;;;;;;;2.88;2.78;;;-2.90;99.90;;;;;;4974262;28;20622;-64
2021/11/24 06:00:14;;;;;;;2.63;2.43;;;-3.00;99.90;;;;;;4974396;28;20184;-64
2021/11/24 06:02:40;;;;;;;2.80;2.60;;;-3.00;99.90;;;;;;4974465;28;20204;-64
2021/11/24 06:05:06;;;;;;;1.77;1.77;;;-3.00;99.90;;;;;;4974768;28;20255;-64
2021/11/24 06:07:34;;;;;;;2.55;2.03;;;-3.00;99.90;;;;;;4973925;28;20192;-64
2021/11/24 06:10:00;;;;;;;4.28;3.45;;;-2.90;99.90;;;;;;4974437;28;20168;-64
2021/11/24 06:12:26;;;;;;;2.67;2.58;;;-2.90;99.90;;;;;;4972903;28;20186;-64
2021/11/24 06:14:51;;;;;;;3.03;2.83;;;-2.90;99.90;;;;;;4974338;28;20176;-66
2021/11/24 06:17:17;;;;;;;3.03;2.80;;;-2.90;99.90;;;;;;4974103;28;20646;-65
2021/11/24 06:19:42;;;;;;;2.00;1.90;;;-2.80;99.90;;;;;;4974518;28;20224;-63
2021/11/24 06:22:08;;;;;;;2.40;2.13;;;-2.80;99.90;;;;;;4974115;28;20203;-65
2021/11/24 06:24:34;;;;;;;3.30;3.20;;;-2.70;99.90;;;;;;4974249;28;20192;-64
2021/11/24 06:27:00;;;;;;;1.70;1.60;;;-2.70;99.90;;;;;;4974026;28;20715;-65
2021/11/24 06:29:25;;;;;;;3.27;3.00;;;-2.60;99.90;;;;;;4974622;28;20647;-65
2021/11/24 06:31:51;;;;;;;6.43;3.13;;;-2.50;99.90;;;;;;4974112;28;20230;-66
2021/11/24 06:34:16;;;;;;;8.57;4.60;;;-2.40;99.90;;;;;;4978033;28;20191;-66
2021/11/24 06:36:42;;;;;;;6.00;3.33;;;-2.30;99.90;;;;;;4976787;28;20187;-66
2021/11/24 06:39:08;;;;;;;2.50;2.30;;;-2.20;99.90;;;;;;4978090;28;20180;-63
2021/11/24 06:41:34;;;;;;;2.43;2.23;;;-2.10;99.90;;;;;;4978393;28;20227;-64
2021/11/24 06:43:59;;;;;;;3.70;3.43;;;-2.00;99.90;;;;;;4978072;28;20227;-64
2021/11/24 06:46:25;;;;;;;4.13;3.90;;;-1.90;99.90;;;;;;4977072;28;20419;-63
2021/11/24 06:48:51;;;;;;;3.60;3.43;;;-1.80;99.90;;;;;;4978009;28;20231;-64
2021/11/24 06:51:16;;;;;;;3.27;3.03;;;-1.70;99.90;;;;;;4977886;28;20635;-64
2021/11/24 06:53:42;;;;;;;3.83;3.47;;;-1.60;99.90;;;;;;4978058;28;20280;-63
2021/11/24 06:56:08;;;;;;;4.67;2.80;;;-1.50;99.90;;;;;;4978001;28;20172;-64
2021/11/24 06:58:34;;;;;;;4.63;4.30;;;-1.30;99.90;;;;;;4986364;28;20626;-65
2021/11/24 07:01:02;;;;;;;2.28;2.17;;;-1.30;99.90;;;;;;4997286;28;20195;-65
2021/11/24 07:03:28;;;;;;;12.15;4.63;;;-1.20;99.90;;;;;;4997035;28;20290;-63
2021/11/24 07:05:54;;;;;;;3.70;3.00;;;-1.00;99.90;;;;;;4997324;28;20210;-65
2021/11/24 07:08:20;;;;;;;5.00;4.72;;;-0.90;99.90;;;;;;4995549;28;20222;-64
2021/11/24 07:10:46;;;;;;;8.00;7.32;;;-0.80;99.90;;;;;;4996949;28;20173;-64
2021/11/24 07:13:12;;;;;;;4.80;4.20;;;-0.70;99.90;;;;;;4997043;28;20249;-64
2021/11/24 07:15:38;;;;;;;5.93;5.07;;;-0.50;99.90;;;;;;4996143;28;20171;-65
2021/11/24 07:18:03;;;;;;;5.50;5.13;;;-0.40;99.90;;;;;;4996657;28;20167;-65
2021/11/24 07:20:29;;;;;;;4.20;3.90;;;-0.30;99.90;;;;;;4995843;28;20241;-65
2021/11/24 07:22:55;;;;;;;3.20;3.07;;;-0.30;99.90;;;;;;4996874;28;20217;-64
2021/11/24 07:25:21;;;;;;;8.90;4.55;;;-0.20;99.90;;;;;;4992494;28;20648;-65
2021/11/24 07:27:48;;;;;;;5.47;4.95;;;-0.10;99.90;;;;;;4994872;28;20586;-69
2021/11/24 07:30:17;;;;;;;6.82;5.07;;;-0.10;99.90;;;;;;4995471;28;20656;-66
2021/11/24 07:32:43;;;;;;;6.90;5.78;;;-0.10;99.90;;;;;;4996691;28;20200;-67
2021/11/24 07:35:08;;;;;;;6.43;5.83;;;0.00;99.90;;;;;;4996664;28;20191;-64
2021/11/24 07:37:34;;;;;;;6.23;3.07;;;0.00;99.90;;;;;;4996215;28;20254;-65
2021/11/24 07:40:00;;;;;;;5.57;4.43;;;0.10;99.90;;;;;;4996498;28;20245;-64
2021/11/24 07:42:25;;;;;;;4.13;3.73;;;0.10;99.90;;;;;;4996307;28;20206;-64
2021/11/24 07:44:51;;;;;;;4.47;3.33;;;0.20;99.90;;;;;;4996258;28;20175;-64
2021/11/24 07:47:17;;;;;;;7.00;5.70;;;0.20;99.90;;;;;;4995977;28;20410;-65
2021/11/24 07:49:43;;;;;;;9.70;5.60;;;0.30;99.90;;;;;;4996258;28;20270;-65
2021/11/24 07:52:08;;;;;;;5.57;4.47;;;0.40;99.90;;;;;;4996455;28;20212;-65
2021/11/24 07:54:34;;;;;;;5.40;4.70;;;0.50;99.90;;;;;;4996244;28;20194;-64
2021/11/24 07:57:00;;;;;;;6.00;5.60;;;0.50;99.90;;;;;;4995961;28;20672;-64
2021/11/24 07:59:26;;;;;;;6.87;5.03;;;0.60;99.90;;;;;;4994928;28;20513;-65
2021/11/24 08:01:51;;;;;;;5.90;5.35;;;0.70;99.90;;;;;;4996225;28;20195;-65
2021/11/24 08:04:17;;;;;;;6.43;4.87;;;0.70;99.90;;;;;;4996018;28;20226;-65
2021/11/24 08:06:43;;;;;;;8.90;4.50;;;0.80;99.90;;;;;;4995673;28;20174;-66
2021/11/24 08:09:09;;;;;;;13.32;6.80;;;0.90;99.90;;;;;;4996190;28;20457;-65
2021/11/24 08:11:35;;;;;;;6.80;5.40;;;1.00;99.90;;;;;;4996183;28;20573;-65
2021/11/24 08:14:01;;;;;;;5.73;4.53;;;1.00;99.90;;;;;;4996008;28;20199;-65
2021/11/24 08:16:27;;;;;;;5.97;5.40;;;1.10;99.90;;;;;;4994577;28;20167;-64
2021/11/24 08:18:53;;;;;;;13.65;6.85;;;1.20;99.90;;;;;;4996035;28;20417;-65
2021/11/24 08:21:19;;;;;;;13.80;5.43;;;1.20;99.90;;;;;;4995997;28;20557;-63
2021/11/24 08:23:45;;;;;;;6.00;5.43;;;1.30;99.90;;;;;;4995776;28;20188;-65
2021/11/24 08:26:11;;;;;;;11.33;6.37;;;1.30;99.90;;;;;;4995688;28;20399;-65
2021/11/24 08:28:36;;;;;;;8.47;7.23;;;1.50;99.90;;;;;;4995448;28;20449;-65
2021/11/24 08:31:02;;;;;;;7.90;6.17;;;1.50;99.90;;;;;;4995945;28;20185;-65
2021/11/24 08:33:28;;;;;;;8.70;5.80;;;1.60;99.90;;;;;;4994473;28;20245;-65
2021/11/24 08:35:53;;;;;;;10.40;8.60;;;1.70;99.90;;;;;;4995756;28;20221;-66
2021/11/24 08:38:19;;;;;;;10.27;5.83;;;1.70;99.90;;;;;;4995405;28;20401;-64
2021/11/24 08:40:45;;;;;;;9.67;5.93;;;1.70;99.90;;;;;;4995757;28;20171;-66
2021/11/24 08:43:11;;;;;;;10.32;7.72;;;1.80;99.90;;;;;;4995430;28;20257;-64
2021/11/24 08:45:37;;;;;;;6.27;5.67;;;1.90;99.90;;;;;;4995619;28;20163;-64
2021/11/24 08:48:06;;;;;;;9.60;5.30;;;2.00;99.90;;;;;;4994900;28;20833;-65
2021/11/24 08:50:33;;;;;;;7.32;6.63;;;2.10;99.90;;;;;;4995231;28;20472;-65
2021/11/24 08:53:00;;;;;;;6.80;5.50;;;2.20;99.90;;;;;;4995232;28;20187;-67
2021/11/24 08:55:25;;;;;;;6.47;4.60;;;2.20;99.90;;;;;;4994886;28;20176;-66
2021/11/24 08:57:51;;;;;;;11.57;7.83;;;2.30;99.90;;;;;;4991926;28;20291;-65
2021/11/24 09:00:19;;;;;;;10.00;6.10;;;2.50;99.90;;;;;;4976028;28;20199;-66
2021/11/24 09:02:45;;;;;;;11.70;8.57;;;2.50;99.90;;;;;;4975581;28;20218;-65
2021/11/24 09:05:13;;;;;;;5.75;5.32;;;2.70;99.90;;;;;;4974314;28;20179;-66
2021/11/24 09:07:39;;;;;;;9.07;7.53;;;2.80;99.90;;;;;;4974077;28;20195;-65
2021/11/24 09:10:06;;;;;;;6.23;4.90;;;2.90;99.90;;;;;;4975174;28;20588;-66
2021/11/24 09:12:32;;;;;;;8.10;7.07;;;3.00;99.90;;;;;;4975550;28;20404;-66
2021/11/24 09:14:58;;;;;;;9.23;5.72;;;3.20;99.90;;;;;;4975633;28;20638;-65
2021/11/24 09:17:24;;;;;;;13.63;6.33;;;3.30;99.90;;;;;;4975330;28;20259;-66
2021/11/24 09:19:50;;;;;;;8.75;7.10;;;3.40;99.90;;;;;;4975860;28;20425;-65
2021/11/24 09:22:17;;;;;;;7.10;6.33;;;3.60;99.90;;;;;;4975419;28;20618;-66
2021/11/24 09:24:43;;;;;;;7.88;5.30;;;3.70;99.90;;;;;;4975661;28;20427;-65
2021/11/24 09:27:56;;;;;;;11.83;5.70;;;4.00;99.90;;;;;;4975167;28;20208;-66
2021/11/24 09:30:00;;;;;;;10.57;6.47;;;4.30;99.90;;;;;;4972199;28;20189;-64
2021/11/24 09:32:27;;;;;;;10.45;6.90;;;4.60;99.90;;;;;;4975237;28;20242;-64
2021/11/24 09:34:53;;;;;;;10.10;5.53;;;4.60;99.90;;;;;;4975144;28;20184;-63
2021/11/24 09:37:19;;;;;;;9.30;4.77;;;4.60;99.90;;;;;;4975114;28;20239;-64
2021/11/24 09:39:44;;;;;;;7.50;6.00;;;4.60;99.90;;;;;;4975906;28;20412;-63
2021/11/24 09:42:17;;;;;;;9.48;5.43;;;4.60;99.90;;;;;;4974550;28;20479;-64
2021/11/24 09:44:47;;;;;;;7.88;5.68;;;4.70;99.90;;;;;;4975664;28;20528;-64
2021/11/24 09:47:14;;;;;;;5.22;4.22;;;4.80;99.90;;;;;;4975510;28;20217;-64
2021/11/24 09:49:41;;;;;;;8.50;5.63;;;4.80;99.90;;;;;;4975796;28;20227;-64
2021/11/24 09:52:07;;;;;;;5.45;4.45;;;4.80;99.90;;;;;;4974571;28;20710;-63
2021/11/24 09:54:33;;;;;;;7.43;5.20;;;4.80;99.90;;;;;;4975834;28;20197;-64
2021/11/24 09:57:00;;;;;;;10.88;7.57;;;4.80;99.90;;;;;;4975223;28;20565;-65
2021/11/24 09:59:25;;;;;;;5.20;4.45;;;4.90;99.90;;;;;;4990608;28;20176;-65
2021/11/24 10:01:51;;;;;;;6.60;4.60;;;4.90;99.90;;;;;;4989381;28;20748;-65
2021/11/24 10:04:17;;;;;;;8.13;5.97;;;5.00;99.90;;;;;;4993896;28;20256;-65
2021/11/24 10:06:43;;;;;;;7.68;6.50;;;5.00;99.90;;;;;;4993570;28;20159;-65
2021/11/24 10:09:10;;;;;;;6.27;5.60;;;4.90;99.90;;;;;;4993992;28;20272;-66
2021/11/24 10:11:36;;;;;;;8.57;5.30;;;4.90;99.90;;;;;;4993832;28;20179;-64
2021/11/24 10:14:02;;;;;;;6.63;4.97;;;4.80;99.90;;;;;;4993814;28;20270;-65
2021/11/24 10:16:31;;;;;;;7.28;6.07;;;4.90;99.90;;;;;;4993616;28;20177;-64
2021/11/24 10:19:03;;;;;;;10.18;5.72;;;5.20;99.90;;;;;;4993984;28;20618;-65
2021/11/24 10:21:29;;;;;;;7.50;4.88;;;5.40;99.90;;;;;;4993782;28;20199;-64
2021/11/24 10:24:01;;;;;;;8.02;5.63;;;5.80;99.90;;;;;;4993880;28;20187;-65
2021/11/24 10:26:34;;;;;;;9.27;5.35;;;6.40;99.90;;;;;;4976666;28;20168;-64
2021/11/24 10:29:01;;;;;;;5.22;4.60;;;7.00;99.90;;;;;;4993985;28;20174;-64
2021/11/24 10:31:29;;;;;;;5.28;4.78;;;7.60;99.90;;;;;;4994274;28;20263;-65
2021/11/24 10:33:56;;;;;;;7.30;4.60;;;8.20;99.90;;;;;;4993793;28;20266;-67
2021/11/24 10:36:22;;;;;;;7.25;4.30;;;8.50;99.90;;;;;;4993280;28;20179;-65
2021/11/24 10:38:52;;;;;;;5.50;4.40;;;8.70;99.90;;;;;;4993778;28;20172;-64
2021/11/24 10:41:39;;;;;;;5.45;4.22;;;8.80;99.90;;;;;;4994152;28;20208;-64
2021/11/24 10:44:06;;;;;;;5.63;4.63;;;8.90;99.90;;;;;;4997851;28;20215;-65
2021/11/24 10:46:35;;;;;;;5.88;4.72;;;8.70;99.90;;;;;;4999695;28;20179;-65
2021/11/24 10:49:09;;;;;;;4.72;4.35;;;8.30;99.90;;;;;;4992324;28;20642;-66
2021/11/24 10:51:39;;;;;;;6.55;5.40;;;7.80;99.90;;;;;;4993436;28;20183;-65
2021/11/24 10:54:06;;;;;;;4.93;3.85;;;7.40;99.90;;;;;;4993867;28;20553;-64
2021/11/24 10:56:32;;;;;;;7.97;4.78;;;7.10;99.90;;;;;;4993319;28;20175;-65
2021/11/24 10:59:17;;;;;;;5.95;4.90;;;6.90;99.90;;;;;;4993499;28;20233;-67
2021/11/24 11:01:44;;;;;;;7.47;5.32;;;6.60;99.90;;;;;;4993652;28;20203;-66
2021/11/24 11:04:10;;;;;;;8.30;5.15;;;6.40;99.90;;;;;;4993463;28;20203;-66
2021/11/24 11:06:38;;;;;;;8.40;6.07;;;6.10;99.90;;;;;;4993184;28;20169;-68
2021/11/24 11:09:04;;;;;;;8.70;4.80;;;6.00;99.90;;;;;;4993615;28;20702;-68
2021/11/24 11:11:35;;;;;;;5.83;3.93;;;5.80;99.90;;;;;;4993559;28;20175;-68
2021/11/24 11:14:21;;;;;;;7.03;4.82;;;5.70;99.90;;;;;;4976167;28;20204;-66
2021/11/24 11:16:53;;;;;;;6.10;5.40;;;5.50;99.90;;;;;;4993027;28;20178;-67
2021/11/24 11:19:42;;;;;;;8.25;5.50;;;5.40;99.90;;;;;;4994543;28;20201;-67
2021/11/24 11:22:10;;;;;;;7.05;4.55;;;5.30;99.90;;;;;;4997117;28;20202;-68
2021/11/24 11:24:36;;;;;;;9.23;5.15;;;5.10;99.90;;;;;;4997062;28;20187;-68
2021/11/24 11:27:02;;;;;;;5.80;4.90;;;4.90;99.90;;;;;;4995385;28;20182;-67
2021/11/24 11:29:28;;;;;;;6.13;5.60;;;4.80;99.90;;;;;;4997033;28;20399;-68
2021/11/24 11:31:55;;;;;;;6.80;4.90;;;4.70;99.90;;;;;;4997141;28;20293;-68
2021/11/24 11:34:21;;;;;;;9.23;5.53;;;4.60;99.90;;;;;;4996858;28;20199;-68
2021/11/24 11:36:47;;;;;;;7.05;5.40;;;4.60;99.90;;;;;;4996327;28;20175;-67
2021/11/24 11:39:13;;;;;;;5.57;5.03;;;4.70;99.90;;;;;;4996854;28;20589;-68
2021/11/24 11:41:42;;;;;;;8.10;5.53;;;4.80;99.90;;;;;;4996559;28;20196;-68
2021/11/24 11:44:12;;;;;;;7.68;4.35;;;5.00;99.90;;;;;;4996493;28;20214;-68
2021/11/24 11:46:44;;;;;;;6.50;5.70;;;5.00;99.90;;;;;;4996460;28;20252;-67
2021/11/24 11:49:16;;;;;;;8.52;5.60;;;5.00;99.90;;;;;;4996763;28;20187;-67
2021/11/24 11:51:43;;;;;;;6.35;5.10;;;5.00;99.90;;;;;;4996359;28;20276;-67
2021/11/24 11:54:11;;;;;;;5.45;4.78;;;5.00;99.90;;;;;;4995103;28;20211;-67
2021/11/24 11:56:46;;;;;;;4.15;3.75;;;5.00;99.90;;;;;;4996024;28;20172;-66
2021/11/24 11:59:17;;;;;;;7.05;4.82;;;5.00;99.90;;;;;;4982083;28;20180;-66
2021/11/24 12:01:42;;;;;;;5.40;4.28;;;5.00;99.90;;;;;;4976868;28;20196;-67
2021/11/24 12:04:17;;;;;;;5.33;4.90;;;5.00;99.90;;;;;;4976754;28;20541;-67
2021/11/24 12:06:52;;;;;;;8.88;4.68;;;5.00;99.90;;;;;;4976462;28;20172;-68
2021/11/24 12:09:21;;;;;;;10.18;5.22;;;5.00;99.90;;;;;;4977083;28;20195;-68
2021/11/24 12:12:04;;;;;;;4.38;3.97;;;5.00;99.90;;;;;;4976648;28;20519;-67
2021/11/24 12:14:41;;;;;;;6.38;5.75;;;5.10;99.90;;;;;;4976384;28;20223;-67
2021/11/24 12:20:12;;;;;;;8.38;5.00;;;5.00;99.90;;;;;;4983760;28;20208;-66
2021/11/24 12:22:50;;;;;;;7.10;4.65;;;5.10;99.90;;;;;;4984532;28;20202;-69
2021/11/24 12:25:26;;;;;;;7.78;6.03;;;5.10;99.90;;;;;;4995938;28;20619;-67
2021/11/24 12:33:21;;;;;;;8.27;5.25;;;5.10;99.90;;;;;;4995636;28;20642;-68
2021/11/24 12:36:12;;;;;;;8.40;4.85;;;5.20;99.90;;;;;;4996082;28;20210;-69
2021/11/24 12:38:49;;;;;;;4.70;4.20;;;5.20;99.90;;;;;;4995372;28;20266;-68
2021/11/24 12:41:22;;;;;;;10.00;5.28;;;5.10;99.90;;;;;;4995776;28;20190;-67
2021/11/24 12:43:59;;;;;;;7.18;5.97;;;5.10;99.90;;;;;;4995575;28;20666;-69
2021/11/24 12:46:31;;;;;;;6.00;4.20;;;5.10;99.90;;;;;;4995213;28;20168;-68
2021/11/24 12:48:58;;;;;;;8.07;5.43;;;5.00;99.90;;;;;;4995578;28;20642;-70
2021/11/24 12:51:28;;;;;;;4.95;4.20;;;5.00;99.90;;;;;;4994194;28;20269;-69
2021/11/24 12:54:02;;;;;;;10.18;5.25;;;4.90;99.90;;;;;;4995339;28;20275;-68
2021/11/24 12:56:32;;;;;;;6.40;4.40;;;5.00;99.90;;;;;;4993824;28;20180;-68
2021/11/24 12:59:04;;;;;;;7.85;6.05;;;5.00;99.90;;;;;;4993886;28;20179;-72
2021/11/24 13:01:37;;;;;;;7.72;5.00;;;5.10;99.90;;;;;;4995323;28;20198;-67